KAFF

Usaf Academy Afld Airport

Colorado Springs, Colorado, USA
METAR KAFF 180658Z AUTO 34003KT 10SM CLR 00/M12 A2980 RMK AO2 SLP089 T00031117 400951020
Observed Flight Rules
Feb-18 @ 06:58 UTC (19 minutes ago) Visual Flight Rules
Wind Visibility Clouds
340° at 3 knots 10 miles
  • Clear skies
Temperatures Readings
Current 0°C / 32°F
Dewpoint -12°C / 10°F
Humidity 40%
Altimeter 29.8" Hg
Pressure 1008.9 hPa
Elevation 2003
METAR KAFF 180658Z AUTO 34003KT 10SM CLR 00/M12 A2980 RMK AO2 SLP089 T00031117 400951020
Observed Flight Rules
Feb-18 @ 06:58 UTC
(19 minutes ago)
VFR
Wind Visibility
340° at 3 knots 10 miles
Clouds
  • Clear skies
Temperature Dewpoint
0°C / 32°F -12°C / 10°F
Humidity Altimeter Pressure
40% 29.8" Hg 1008.9 hPa